Time;durP1;ratioP1;P1;durP2;ratioP2;P2;SDS_P1;SDS_P2;PMS_P1;PMS_P2;Temp;Humidity;BMP_temperature;BMP_pressure;BME280_temperature;BME280_humidity;BME280_pressure;Samples;Min_cycle;Max_cycle;Signal;HPM_P1;HPM_P2
2022/01/08 00:02:08;;;;;;;0.47;0.47;;;3.70;99.90;;;;;;5055148;28;20244;-69
2022/01/08 00:04:33;;;;;;;1.37;1.30;;;3.60;99.90;;;;;;5055203;28;20189;-67
2022/01/08 00:06:59;;;;;;;1.10;0.80;;;3.60;99.90;;;;;;5055111;28;20833;-69
2022/01/08 00:09:25;;;;;;;1.40;0.90;;;3.50;99.90;;;;;;5055146;28;20169;-69
2022/01/08 00:11:50;;;;;;;1.20;1.20;;;3.40;99.90;;;;;;5054882;28;20180;-68
2022/01/08 00:14:18;;;;;;;2.37;1.20;;;3.40;99.90;;;;;;5055185;28;20276;-69
2022/01/08 00:16:44;;;;;;;1.20;1.10;;;3.30;99.90;;;;;;5055075;28;20185;-68
2022/01/08 00:19:09;;;;;;;1.07;1.07;;;3.20;99.90;;;;;;5054850;28;20176;-69
2022/01/08 00:21:35;;;;;;;1.13;1.07;;;3.20;99.90;;;;;;5053241;28;20662;-69
2022/01/08 00:24:01;;;;;;;0.83;0.83;;;3.20;99.90;;;;;;5055046;28;20223;-68
2022/01/08 00:26:27;;;;;;;0.80;0.80;;;3.20;99.90;;;;;;5054914;28;20197;-70
2022/01/08 00:28:52;;;;;;;1.95;1.85;;;3.20;99.90;;;;;;5054856;28;20169;-67
2022/01/08 00:31:18;;;;;;;0.80;0.80;;;3.30;99.90;;;;;;5054430;28;20169;-68
2022/01/08 00:33:44;;;;;;;0.87;0.80;;;3.30;99.90;;;;;;5054717;28;20212;-68
2022/01/08 00:36:09;;;;;;;1.27;0.80;;;3.40;99.90;;;;;;5054883;28;20212;-68
2022/01/08 00:38:35;;;;;;;0.70;0.60;;;3.40;99.90;;;;;;5054738;28;20170;-68
2022/01/08 00:41:01;;;;;;;1.95;1.13;;;3.50;99.90;;;;;;5054302;28;20169;-68
2022/01/08 00:43:27;;;;;;;1.83;1.60;;;3.50;99.90;;;;;;5054449;28;20176;-69
2022/01/08 00:45:53;;;;;;;3.40;1.30;;;3.50;99.90;;;;;;5054611;28;20173;-69
2022/01/08 00:48:18;;;;;;;0.90;0.90;;;3.50;99.90;;;;;;5054320;28;20529;-68
2022/01/08 00:50:44;;;;;;;0.60;0.60;;;3.50;99.90;;;;;;5054481;28;20173;-67
2022/01/08 00:53:10;;;;;;;0.60;0.60;;;3.50;99.90;;;;;;5053972;28;20722;-67
2022/01/08 00:55:35;;;;;;;0.80;0.80;;;3.60;99.90;;;;;;5053738;28;20248;-68
2022/01/08 00:58:01;;;;;;;0.70;0.70;;;3.60;99.90;;;;;;5054254;28;20430;-67
2022/01/08 01:00:27;;;;;;;0.93;0.90;;;3.60;99.90;;;;;;5054337;28;20180;-69
2022/01/08 01:02:53;;;;;;;1.40;1.33;;;3.70;99.90;;;;;;5059871;28;20615;-67
2022/01/08 01:05:20;;;;;;;0.85;0.85;;;3.70;99.90;;;;;;5073884;28;20195;-68
2022/01/08 01:07:46;;;;;;;0.60;0.60;;;3.80;99.90;;;;;;5074259;28;20566;-71
2022/01/08 01:10:12;;;;;;;1.03;1.03;;;3.90;99.90;;;;;;5074110;28;20224;-68
2022/01/08 01:12:38;;;;;;;1.17;1.17;;;4.00;99.90;;;;;;5073371;28;20516;-68
2022/01/08 01:15:05;;;;;;;0.88;0.55;;;4.00;99.90;;;;;;5073844;28;20821;-69
2022/01/08 01:17:31;;;;;;;1.25;1.05;;;4.10;99.90;;;;;;5073953;28;20271;-69
2022/01/08 01:19:56;;;;;;;0.60;0.60;;;4.10;99.90;;;;;;5073795;28;20196;-68
2022/01/08 01:22:27;;;;;;;0.87;0.87;;;4.10;99.90;;;;;;5073324;28;20172;-68
2022/01/08 01:25:00;;;;;;;0.60;0.60;;;4.10;99.90;;;;;;5073804;28;20165;-67
2022/01/08 01:28:21;;;;;;;0.85;0.85;;;4.10;99.90;;;;;;5073641;28;20191;-67
2022/01/08 01:30:17;;;;;;;0.50;0.50;;;4.10;99.90;;;;;;5070684;28;20196;-67
2022/01/08 01:41:22;;;;;;;0.90;0.90;;;4.00;99.90;;;;;;5073861;28;20172;-69
2022/01/08 01:49:35;;;;;;;1.13;0.90;;;4.00;99.90;;;;;;5072909;28;20168;-67
2022/01/08 01:52:02;;;;;;;1.30;1.20;;;4.10;99.90;;;;;;5073332;28;20539;-70
2022/01/08 01:54:29;;;;;;;0.95;0.57;;;4.00;99.90;;;;;;5073587;28;20546;-68
2022/01/08 01:56:57;;;;;;;1.30;1.00;;;4.10;99.90;;;;;;5073399;28;20185;-68
2022/01/08 01:59:29;;;;;;;1.08;1.08;;;4.10;99.90;;;;;;5073504;28;20172;-68
2022/01/08 02:01:58;;;;;;;0.50;0.50;;;4.10;99.90;;;;;;5073277;28;20168;-69
2022/01/08 02:04:23;;;;;;;0.88;0.68;;;4.10;99.90;;;;;;5073553;28;20628;-66
2022/01/08 02:06:50;;;;;;;0.90;0.90;;;4.10;99.90;;;;;;5076308;28;20322;-68
2022/01/08 02:09:16;;;;;;;0.60;0.60;;;4.10;99.90;;;;;;5076271;28;20523;-70
2022/01/08 02:11:55;;;;;;;1.97;0.97;;;4.10;99.90;;;;;;5077277;28;20164;-67
2022/01/08 02:14:21;;;;;;;0.80;0.75;;;4.20;99.90;;;;;;5077364;28;20809;-68
2022/01/08 02:16:47;;;;;;;0.70;0.70;;;4.20;99.90;;;;;;5077530;28;20189;-68
2022/01/08 02:19:12;;;;;;;0.70;0.67;;;4.20;99.90;;;;;;5077313;28;20169;-68
2022/01/08 02:21:38;;;;;;;0.87;0.87;;;4.20;99.90;;;;;;5076916;28;20249;-68
2022/01/08 02:24:05;;;;;;;1.03;0.87;;;4.20;99.90;;;;;;5076032;28;20180;-68
2022/01/08 02:26:30;;;;;;;1.13;1.02;;;4.20;99.90;;;;;;5077472;28;20193;-70
2022/01/08 02:28:58;;;;;;;1.07;1.07;;;4.30;99.90;;;;;;5077094;28;20198;-69
2022/01/08 02:31:24;;;;;;;3.30;0.80;;;4.30;99.90;;;;;;5076534;28;20179;-69
2022/01/08 02:33:50;;;;;;;1.00;1.00;;;4.30;99.90;;;;;;5077165;28;20199;-70
2022/01/08 02:36:16;;;;;;;0.80;0.80;;;4.30;99.90;;;;;;5077116;28;20553;-69
2022/01/08 02:38:42;;;;;;;2.40;0.80;;;4.30;99.90;;;;;;5077140;28;20207;-69
2022/01/08 02:41:08;;;;;;;0.95;0.80;;;4.30;99.90;;;;;;5076442;28;20524;-69
2022/01/08 02:43:40;;;;;;;1.10;1.10;;;4.30;99.90;;;;;;5077216;28;20165;-70
2022/01/08 02:46:06;;;;;;;0.80;0.80;;;4.30;99.90;;;;;;5076789;28;20399;-68
2022/01/08 02:48:32;;;;;;;0.90;0.90;;;4.30;99.90;;;;;;5076980;28;20164;-70
2022/01/08 02:50:58;;;;;;;0.80;0.80;;;4.30;99.90;;;;;;5075314;28;20181;-70
2022/01/08 02:53:24;;;;;;;1.30;1.20;;;4.30;99.90;;;;;;5076166;28;20447;-68
2022/01/08 02:55:51;;;;;;;0.73;0.73;;;4.30;99.90;;;;;;5076650;28;20165;-68
2022/01/08 02:58:16;;;;;;;1.63;1.08;;;4.30;99.90;;;;;;5076247;28;20276;-69
2022/01/08 03:00:42;;;;;;;0.80;0.80;;;4.30;99.90;;;;;;5075267;28;20264;-69
2022/01/08 03:03:08;;;;;;;1.57;1.03;;;4.30;99.90;;;;;;5067282;28;20231;-69
2022/01/08 03:05:33;;;;;;;1.20;1.10;;;4.20;99.90;;;;;;5056401;28;20173;-69
2022/01/08 03:07:59;;;;;;;0.80;0.80;;;4.30;99.90;;;;;;5056234;28;20192;-68
2022/01/08 03:10:25;;;;;;;0.60;0.60;;;4.20;99.90;;;;;;5056329;28;20227;-68
2022/01/08 03:12:50;;;;;;;1.03;1.03;;;4.20;99.90;;;;;;5055730;28;20410;-67
2022/01/08 03:15:21;;;;;;;1.00;1.00;;;4.30;99.90;;;;;;5056108;28;20173;-67
2022/01/08 03:17:48;;;;;;;3.22;0.93;;;4.30;99.90;;;;;;5055442;28;20261;-69
2022/01/08 03:20:14;;;;;;;1.20;1.20;;;4.30;99.90;;;;;;5055713;28;20668;-69
2022/01/08 03:22:43;;;;;;;0.73;0.73;;;4.30;99.90;;;;;;5055525;28;20256;-68
2022/01/08 03:25:09;;;;;;;3.10;1.05;;;4.30;99.90;;;;;;5056131;28;20252;-69
2022/01/08 03:27:36;;;;;;;0.75;0.75;;;4.40;99.90;;;;;;5055973;28;20276;-69
2022/01/08 03:30:05;;;;;;;1.20;1.10;;;4.40;99.90;;;;;;5056001;28;20571;-69
2022/01/08 03:32:30;;;;;;;1.38;0.90;;;4.40;99.90;;;;;;5055640;28;20184;-69
2022/01/08 03:34:56;;;;;;;2.73;0.77;;;4.40;99.90;;;;;;5055786;28;20280;-68
2022/01/08 03:37:22;;;;;;;2.73;0.70;;;4.50;99.90;;;;;;5055600;28;20608;-68
2022/01/08 03:39:47;;;;;;;1.03;0.93;;;4.50;99.90;;;;;;5056044;28;20179;-68
2022/01/08 03:42:13;;;;;;;0.83;0.70;;;4.50;99.90;;;;;;5055173;28;20170;-69
2022/01/08 03:44:39;;;;;;;0.50;0.50;;;4.60;99.90;;;;;;5055570;28;20179;-67
2022/01/08 03:47:52;;;;;;;0.70;0.70;;;4.60;99.90;;;;;;5055886;28;20185;-68
2022/01/08 03:50:09;;;;;;;0.77;0.73;;;4.60;99.90;;;;;;5055216;28;20169;-67
2022/01/08 03:52:34;;;;;;;0.77;0.60;;;4.60;99.90;;;;;;5054930;28;20192;-69
2022/01/08 03:55:00;;;;;;;0.43;0.43;;;4.60;99.90;;;;;;5055668;28;20201;-68
2022/01/08 03:57:25;;;;;;;1.40;1.40;;;4.60;99.90;;;;;;5055284;28;20186;-69
2022/01/08 03:59:51;;;;;;;0.90;0.90;;;4.60;99.90;;;;;;5054242;28;20170;-69
2022/01/08 04:02:17;;;;;;;3.70;0.60;;;4.50;99.90;;;;;;5056059;28;20679;-68
2022/01/08 04:04:42;;;;;;;0.77;0.77;;;4.50;99.90;;;;;;5075406;28;20188;-68
2022/01/08 04:07:08;;;;;;;1.90;1.20;;;4.50;99.90;;;;;;5075209;28;20196;-68
2022/01/08 04:09:34;;;;;;;0.90;0.90;;;4.50;99.90;;;;;;5075332;28;20168;-69
2022/01/08 04:11:59;;;;;;;0.60;0.60;;;4.50;99.90;;;;;;5074899;28;20196;-68
2022/01/08 04:14:32;;;;;;;0.63;0.63;;;4.40;99.90;;;;;;5074834;28;20455;-69
2022/01/08 04:16:57;;;;;;;0.75;0.75;;;4.40;99.90;;;;;;5075137;28;20550;-68
2022/01/08 04:19:23;;;;;;;0.80;0.80;;;4.40;99.90;;;;;;5075134;28;20165;-68
2022/01/08 04:22:12;;;;;;;0.80;0.80;;;4.40;99.90;;;;;;5074659;28;20176;-68
2022/01/08 04:24:34;;;;;;;0.50;0.50;;;4.30;99.90;;;;;;5074424;28;20216;-68
2022/01/08 04:27:00;;;;;;;0.80;0.80;;;4.30;99.90;;;;;;5074871;28;20195;-68
2022/01/08 04:29:26;;;;;;;0.60;0.60;;;4.30;99.90;;;;;;5073986;28;20172;-68
2022/01/08 04:31:51;;;;;;;0.70;0.70;;;4.30;99.90;;;;;;5073159;28;20192;-68
2022/01/08 04:34:17;;;;;;;0.53;0.53;;;4.40;99.90;;;;;;5074655;28;20188;-68
2022/01/08 04:36:43;;;;;;;3.93;1.37;;;4.40;99.90;;;;;;5074394;28;20184;-67
2022/01/08 04:39:08;;;;;;;0.60;0.60;;;4.30;99.90;;;;;;5074498;28;20732;-68
2022/01/08 04:41:34;;;;;;;0.70;0.70;;;4.30;99.90;;;;;;5074114;28;20169;-69
2022/01/08 04:44:00;;;;;;;0.90;0.90;;;4.30;99.90;;;;;;5074402;28;20289;-67
2022/01/08 04:46:25;;;;;;;0.93;0.93;;;4.40;99.90;;;;;;5074460;28;20240;-68
2022/01/08 04:48:51;;;;;;;0.90;0.90;;;4.40;99.90;;;;;;5074429;28;20646;-68
2022/01/08 04:51:16;;;;;;;2.77;1.87;;;4.40;99.90;;;;;;5073812;28;20564;-68
2022/01/08 04:53:42;;;;;;;0.93;0.83;;;4.30;99.90;;;;;;5074130;28;20284;-68
2022/01/08 04:56:08;;;;;;;1.30;1.20;;;4.40;99.90;;;;;;5074291;28;20189;-68
2022/01/08 04:58:34;;;;;;;0.90;0.90;;;4.40;99.90;;;;;;5074084;28;20211;-67
2022/01/08 05:00:59;;;;;;;1.37;1.07;;;4.40;99.90;;;;;;5073871;28;20435;-69
2022/01/08 05:03:25;;;;;;;2.10;1.33;;;4.40;99.90;;;;;;5063192;28;20656;-69
2022/01/08 05:05:51;;;;;;;1.27;1.17;;;4.30;99.90;;;;;;5054136;28;20219;-68
2022/01/08 05:08:16;;;;;;;0.87;0.87;;;4.30;99.90;;;;;;5054044;28;20232;-68
2022/01/08 05:10:42;;;;;;;0.70;0.70;;;4.20;99.90;;;;;;5053946;28;20223;-69
2022/01/08 05:13:08;;;;;;;1.47;1.33;;;4.20;99.90;;;;;;5053496;28;20196;-69
2022/01/08 05:15:35;;;;;;;0.60;0.40;;;4.20;99.90;;;;;;5053890;28;20166;-68
2022/01/08 05:18:02;;;;;;;1.58;1.48;;;4.10;99.90;;;;;;5053678;28;20189;-68
2022/01/08 05:20:32;;;;;;;0.88;0.80;;;4.00;99.90;;;;;;5052785;28;20528;-69
2022/01/08 05:23:01;;;;;;;0.80;0.80;;;4.00;99.90;;;;;;5053447;28;20516;-67
2022/01/08 05:25:28;;;;;;;0.80;0.80;;;3.90;99.90;;;;;;5053648;28;20168;-68
2022/01/08 05:27:54;;;;;;;1.00;1.00;;;3.80;99.90;;;;;;5053499;28;20192;-67
2022/01/08 05:30:22;;;;;;;1.07;1.03;;;3.80;99.90;;;;;;5053607;28;20165;-67
2022/01/08 05:32:48;;;;;;;0.70;0.70;;;3.70;99.90;;;;;;5053095;28;20509;-68
2022/01/08 05:35:15;;;;;;;0.93;0.93;;;3.70;99.90;;;;;;5053574;28;20181;-68
2022/01/08 05:37:41;;;;;;;2.45;1.13;;;3.60;99.90;;;;;;5051990;28;20529;-67
2022/01/08 05:40:09;;;;;;;0.88;0.60;;;3.60;99.90;;;;;;5053361;28;20169;-67
2022/01/08 05:42:35;;;;;;;1.10;1.10;;;3.50;99.90;;;;;;5053058;28;20713;-67
2022/01/08 05:45:02;;;;;;;0.87;0.87;;;3.50;99.90;;;;;;5053472;28;20173;-68
2022/01/08 05:47:30;;;;;;;2.25;1.13;;;3.40;99.90;;;;;;5053440;28;20193;-67
2022/01/08 05:49:56;;;;;;;0.70;0.70;;;3.40;99.90;;;;;;5053729;28;20180;-69
2022/01/08 05:52:21;;;;;;;1.10;0.93;;;3.40;99.90;;;;;;5052911;28;20183;-68
2022/01/08 05:54:47;;;;;;;1.80;0.70;;;3.50;99.90;;;;;;5053246;28;20726;-68
2022/01/08 05:57:13;;;;;;;0.60;0.60;;;3.40;99.90;;;;;;5053107;28;20189;-68
2022/01/08 05:59:38;;;;;;;1.37;0.70;;;3.40;99.90;;;;;;5053425;28;20173;-69
2022/01/08 06:02:08;;;;;;;3.80;0.80;;;3.30;99.90;;;;;;5053137;28;20169;-69
2022/01/08 06:04:33;;;;;;;0.70;0.70;;;3.40;99.90;;;;;;5073258;28;20562;-68
2022/01/08 06:06:59;;;;;;;0.57;0.57;;;3.30;99.90;;;;;;5073156;28;20202;-71
2022/01/08 06:09:25;;;;;;;0.70;0.70;;;3.30;99.90;;;;;;5073357;28;20165;-69
2022/01/08 06:11:50;;;;;;;0.80;0.50;;;3.30;99.90;;;;;;5072953;28;20255;-69
2022/01/08 06:14:16;;;;;;;0.60;0.60;;;3.30;99.90;;;;;;5073418;28;20275;-68
2022/01/08 06:16:42;;;;;;;0.50;0.50;;;3.30;99.90;;;;;;5073293;28;20193;-69
2022/01/08 06:19:10;;;;;;;0.53;0.50;;;3.20;99.90;;;;;;5073148;28;20169;-68
2022/01/08 06:21:36;;;;;;;0.30;0.30;;;3.20;99.90;;;;;;5073283;28;20175;-71
2022/01/08 06:24:03;;;;;;;0.47;0.47;;;3.20;99.90;;;;;;5073835;28;20188;-67
2022/01/08 06:26:28;;;;;;;0.55;0.55;;;3.10;99.90;;;;;;5073692;28;20193;-67
2022/01/08 06:28:54;;;;;;;0.50;0.50;;;3.10;99.90;;;;;;5072327;28;20175;-70
2022/01/08 06:31:21;;;;;;;0.40;0.40;;;3.00;99.90;;;;;;5073410;28;20415;-69
2022/01/08 06:33:47;;;;;;;0.55;0.55;;;3.00;99.90;;;;;;5074103;28;20292;-67
2022/01/08 06:36:14;;;;;;;0.40;0.40;;;3.00;99.90;;;;;;5073660;28;20208;-68
2022/01/08 06:38:40;;;;;;;0.52;0.52;;;2.90;99.90;;;;;;5073790;28;20575;-67
2022/01/08 06:41:06;;;;;;;0.52;0.52;;;2.90;99.90;;;;;;5074111;28;20524;-69
2022/01/08 06:43:31;;;;;;;0.30;0.30;;;2.80;99.90;;;;;;5074132;28;20172;-67
2022/01/08 06:45:57;;;;;;;0.40;0.40;;;2.80;99.90;;;;;;5074783;28;20949;-68
2022/01/08 06:48:23;;;;;;;0.77;0.50;;;2.80;99.90;;;;;;5074317;28;20188;-69
2022/01/08 06:50:48;;;;;;;0.53;0.50;;;2.80;99.90;;;;;;5074145;28;20285;-70
2022/01/08 06:53:14;;;;;;;0.80;0.80;;;2.80;99.90;;;;;;5075092;28;20199;-69
2022/01/08 06:55:39;;;;;;;0.93;0.80;;;2.80;99.90;;;;;;5076814;28;20173;-67
2022/01/08 06:58:05;;;;;;;0.60;0.60;;;2.80;99.90;;;;;;5076453;28;20206;-69
2022/01/08 07:00:31;;;;;;;0.67;0.67;;;2.80;99.90;;;;;;5077434;28;20168;-69
2022/01/08 07:02:56;;;;;;;0.60;0.60;;;2.80;99.90;;;;;;5069559;28;20192;-69
2022/01/08 07:05:22;;;;;;;1.20;1.10;;;2.80;99.90;;;;;;5056217;28;20165;-70
2022/01/08 07:07:47;;;;;;;0.70;0.70;;;2.80;99.90;;;;;;5056681;28;20590;-68
2022/01/08 07:10:13;;;;;;;0.60;0.60;;;2.80;99.90;;;;;;5056319;28;20169;-70
2022/01/08 07:12:39;;;;;;;0.60;0.60;;;2.80;99.90;;;;;;5056067;28;20165;-70
2022/01/08 07:15:05;;;;;;;0.40;0.40;;;2.80;99.90;;;;;;5055059;28;20443;-68
2022/01/08 07:17:31;;;;;;;0.70;0.70;;;2.80;99.90;;;;;;5056270;28;20888;-69
2022/01/08 07:19:57;;;;;;;0.73;0.73;;;2.80;99.90;;;;;;5056832;28;20295;-69
2022/01/08 07:22:23;;;;;;;0.80;0.80;;;2.80;99.90;;;;;;5055733;28;20281;-69
2022/01/08 07:24:48;;;;;;;1.80;0.90;;;2.80;99.90;;;;;;5056516;28;20523;-68
2022/01/08 07:27:14;;;;;;;0.80;0.80;;;2.70;99.90;;;;;;5055164;28;20202;-69
2022/01/08 07:29:40;;;;;;;1.30;1.20;;;2.70;99.90;;;;;;5056174;28;20205;-71
2022/01/08 07:32:06;;;;;;;1.13;1.13;;;2.80;99.90;;;;;;5055551;28;20189;-67
2022/01/08 07:34:32;;;;;;;1.23;1.13;;;2.70;99.90;;;;;;5056054;28;20222;-68
2022/01/08 07:36:57;;;;;;;0.60;0.60;;;2.80;99.90;;;;;;5055931;28;20181;-69
2022/01/08 07:39:23;;;;;;;0.60;0.47;;;2.80;99.90;;;;;;5056044;28;20161;-69
2022/01/08 07:41:48;;;;;;;0.40;0.40;;;2.70;99.90;;;;;;5055448;28;20231;-68
2022/01/08 07:44:14;;;;;;;0.60;0.60;;;2.80;99.90;;;;;;5056101;28;20174;-69
2022/01/08 07:46:40;;;;;;;1.23;0.83;;;2.60;99.90;;;;;;5056763;28;20185;-68
2022/01/08 07:49:05;;;;;;;0.87;0.87;;;2.70;99.90;;;;;;5055956;28;20640;-69
2022/01/08 07:51:31;;;;;;;2.70;1.27;;;2.60;99.90;;;;;;5055397;28;20197;-69
2022/01/08 07:53:57;;;;;;;1.10;1.00;;;2.60;99.90;;;;;;5056281;28;20670;-70
2022/01/08 07:56:23;;;;;;;0.87;0.87;;;2.60;99.90;;;;;;5055397;28;20189;-69
2022/01/08 07:58:48;;;;;;;0.73;0.73;;;2.70;99.90;;;;;;5056077;28;20643;-67
2022/01/08 08:01:14;;;;;;;1.00;1.00;;;2.70;99.90;;;;;;5055555;28;20403;-68
2022/01/08 08:03:39;;;;;;;1.13;1.13;;;2.70;99.90;;;;;;5067869;28;20192;-68
2022/01/08 08:06:10;;;;;;;1.37;1.13;;;2.80;99.90;;;;;;5075297;28;20551;-69
2022/01/08 08:08:35;;;;;;;2.95;1.50;;;2.80;99.90;;;;;;5075388;28;20277;-69
2022/01/08 08:11:01;;;;;;;1.53;1.30;;;2.80;99.90;;;;;;5075161;28;20289;-69
2022/01/08 08:13:27;;;;;;;1.50;1.40;;;2.70;99.90;;;;;;5075030;28;20193;-69
2022/01/08 08:15:52;;;;;;;2.30;1.07;;;2.70;99.90;;;;;;5075265;28;20179;-69
2022/01/08 08:18:18;;;;;;;1.40;1.30;;;2.70;99.90;;;;;;5074975;28;20230;-69
2022/01/08 08:20:44;;;;;;;1.23;1.23;;;2.80;99.90;;;;;;5075360;28;20172;-70
2022/01/08 08:23:09;;;;;;;0.97;0.97;;;2.80;99.90;;;;;;5074937;28;20171;-69
2022/01/08 08:25:35;;;;;;;1.47;1.37;;;2.80;99.90;;;;;;5075098;28;20247;-69
2022/01/08 08:28:02;;;;;;;1.47;1.37;;;2.90;99.90;;;;;;5074716;28;20189;-68
2022/01/08 08:30:28;;;;;;;6.07;1.02;;;2.90;99.90;;;;;;5074772;28;20255;-69
2022/01/08 08:32:54;;;;;;;1.53;1.43;;;2.90;99.90;;;;;;5074411;28;20192;-68
2022/01/08 08:35:19;;;;;;;0.67;0.67;;;3.00;99.90;;;;;;5074791;28;20275;-68
2022/01/08 08:37:45;;;;;;;1.10;1.10;;;3.00;99.90;;;;;;5074626;28;20264;-68
2022/01/08 08:40:13;;;;;;;1.10;1.10;;;3.10;99.90;;;;;;5074574;28;20167;-69
2022/01/08 08:42:39;;;;;;;0.80;0.80;;;3.10;99.90;;;;;;5074239;28;20707;-69
2022/01/08 08:45:06;;;;;;;0.60;0.60;;;3.10;99.90;;;;;;5074752;28;20191;-69
2022/01/08 08:47:32;;;;;;;1.00;1.00;;;3.10;99.90;;;;;;5074486;28;20247;-69
2022/01/08 08:49:59;;;;;;;0.63;0.63;;;3.20;99.90;;;;;;5074363;28;20179;-71
2022/01/08 08:52:24;;;;;;;0.85;0.60;;;3.20;99.90;;;;;;5072869;28;20173;-69
2022/01/08 08:54:51;;;;;;;1.70;1.60;;;3.20;99.90;;;;;;5074124;28;20203;-69
2022/01/08 08:57:17;;;;;;;1.60;1.00;;;3.30;99.90;;;;;;5074150;28;20191;-69
2022/01/08 08:59:42;;;;;;;0.90;0.90;;;3.30;99.90;;;;;;5074371;28;20497;-69
2022/01/08 09:02:09;;;;;;;0.93;0.93;;;3.40;99.90;;;;;;5072749;28;20314;-71
2022/01/08 09:04:36;;;;;;;1.85;1.73;;;3.40;99.90;;;;;;5054260;28;20200;-70
2022/01/08 09:07:03;;;;;;;1.75;1.65;;;3.50;99.90;;;;;;5052601;28;20675;-70
2022/01/08 09:09:28;;;;;;;7.72;1.00;;;3.60;99.90;;;;;;5054360;28;20174;-69
2022/01/08 09:11:54;;;;;;;1.77;1.50;;;3.60;99.90;;;;;;5053684;28;20175;-68
2022/01/08 09:14:20;;;;;;;0.60;0.60;;;3.70;99.90;;;;;;5053796;28;20204;-68
2022/01/08 09:16:49;;;;;;;1.00;0.90;;;3.60;99.90;;;;;;5053356;28;20185;-69
2022/01/08 09:19:16;;;;;;;0.88;0.88;;;3.70;99.90;;;;;;5053964;28;20166;-69
2022/01/08 09:21:42;;;;;;;2.30;1.20;;;3.70;99.90;;;;;;5053330;28;20173;-69
2022/01/08 09:24:08;;;;;;;0.70;0.70;;;3.80;99.90;;;;;;5053971;28;20530;-68
2022/01/08 09:26:34;;;;;;;1.20;1.20;;;3.90;99.90;;;;;;5053636;28;20213;-68
2022/01/08 09:29:00;;;;;;;1.05;1.05;;;3.90;99.90;;;;;;5053545;28;20165;-67
2022/01/08 09:31:26;;;;;;;0.87;0.87;;;3.90;99.90;;;;;;5053227;28;20165;-68
2022/01/08 09:33:51;;;;;;;1.13;1.03;;;4.00;99.90;;;;;;5053824;28;20221;-69
2022/01/08 09:36:17;;;;;;;0.50;0.50;;;4.10;99.90;;;;;;5053628;28;20172;-68
2022/01/08 09:38:43;;;;;;;1.30;1.20;;;4.10;99.90;;;;;;5053534;28;20638;-68
2022/01/08 09:41:09;;;;;;;1.30;1.20;;;4.20;99.90;;;;;;5053203;28;20181;-69
2022/01/08 09:43:36;;;;;;;4.03;1.10;;;4.20;99.90;;;;;;5053895;28;20162;-70
2022/01/08 09:46:02;;;;;;;0.95;0.80;;;4.30;99.90;;;;;;5053150;28;20454;-68
2022/01/08 09:48:28;;;;;;;1.42;1.35;;;4.30;99.90;;;;;;5053155;28;20647;-69
2022/01/08 09:50:54;;;;;;;1.00;1.00;;;4.40;99.90;;;;;;5051887;28;20182;-69
2022/01/08 09:53:21;;;;;;;2.10;1.00;;;4.50;99.90;;;;;;5052935;28;20201;-69
2022/01/08 09:55:47;;;;;;;1.70;1.58;;;4.60;99.90;;;;;;5053440;28;20165;-69
2022/01/08 09:58:12;;;;;;;1.70;1.60;;;4.60;99.90;;;;;;5053035;28;20188;-70
2022/01/08 10:00:38;;;;;;;2.27;1.33;;;4.80;99.90;;;;;;5053067;28;20163;-68
2022/01/08 10:03:19;;;;;;;1.33;1.23;;;5.20;99.90;;;;;;5060307;28;20166;-69
2022/01/08 10:05:51;;;;;;;0.80;0.80;;;5.20;99.90;;;;;;5073512;28;20233;-70
2022/01/08 10:08:23;;;;;;;1.65;1.25;;;5.40;99.90;;;;;;5073123;28;20390;-69
2022/01/08 10:10:59;;;;;;;1.73;1.58;;;5.60;99.90;;;;;;5073386;28;20180;-68
2022/01/08 10:13:32;;;;;;;1.40;1.00;;;5.60;99.90;;;;;;5072776;28;20204;-68
2022/01/08 10:18:45;;;;;;;1.10;1.08;;;5.60;99.90;;;;;;5073276;28;20258;-70
2022/01/08 10:21:19;;;;;;;0.93;0.93;;;5.60;99.90;;;;;;5072656;28;20243;-68
2022/01/08 10:23:50;;;;;;;1.00;0.80;;;5.70;99.90;;;;;;5073092;28;20249;-69
2022/01/08 10:26:18;;;;;;;1.67;1.08;;;5.60;99.90;;;;;;5072809;28;20166;-69
2022/01/08 10:28:59;;;;;;;1.50;1.40;;;5.60;99.90;;;;;;5075184;28;20199;-69
2022/01/08 10:31:32;;;;;;;0.80;0.80;;;5.60;99.90;;;;;;5076738;28;20453;-68
2022/01/08 10:34:01;;;;;;;1.02;1.02;;;5.60;99.90;;;;;;5076636;28;20291;-69
2022/01/08 10:36:33;;;;;;;1.60;1.50;;;5.60;99.90;;;;;;5076766;28;20610;-68
2022/01/08 10:39:02;;;;;;;1.48;1.38;;;5.70;99.90;;;;;;5075609;28;20183;-69
2022/01/08 10:41:29;;;;;;;1.70;1.17;;;5.70;99.90;;;;;;5076249;28;20194;-70
2022/01/08 10:44:15;;;;;;;0.90;0.90;;;5.80;99.90;;;;;;5076844;28;20183;-69
2022/01/08 10:47:08;;;;;;;0.80;0.80;;;5.80;99.90;;;;;;5076282;28;20526;-68
2022/01/08 10:49:38;;;;;;;6.78;1.30;;;5.90;99.90;;;;;;5075191;28;20182;-69
2022/01/08 10:52:12;;;;;;;2.75;1.65;;;6.00;99.90;;;;;;5075949;28;20192;-69
2022/01/08 10:54:40;;;;;;;1.05;1.05;;;5.90;99.90;;;;;;5076642;28;20209;-70
2022/01/08 10:57:08;;;;;;;2.05;1.15;;;5.70;99.90;;;;;;5075947;28;20245;-70
2022/01/08 10:59:36;;;;;;;7.80;1.38;;;5.90;99.90;;;;;;5076293;28;20588;-72
2022/01/08 11:02:06;;;;;;;1.35;1.25;;;5.90;99.90;;;;;;5075918;28;20199;-69
2022/01/08 11:04:50;;;;;;;1.70;1.63;;;6.80;99.90;;;;;;5056088;28;20186;-69
2022/01/08 11:07:24;;;;;;;1.20;1.10;;;6.50;99.90;;;;;;5055943;28;20688;-69
2022/01/08 11:10:08;;;;;;;1.05;0.80;;;7.00;99.90;;;;;;5055952;28;20173;-70
2022/01/08 11:12:41;;;;;;;3.70;0.85;;;7.00;99.90;;;;;;5055769;28;20519;-69
2022/01/08 11:17:47;;;;;;;0.95;0.95;;;6.50;99.90;;;;;;5055985;28;20555;-69
2022/01/08 11:20:15;;;;;;;0.70;0.70;;;6.20;99.90;;;;;;5055945;28;20165;-69
2022/01/08 11:22:47;;;;;;;2.15;0.80;;;5.90;99.90;;;;;;5055477;28;20251;-68
2022/01/08 11:25:32;;;;;;;0.70;0.70;;;5.50;99.90;;;;;;5055926;28;20188;-69
2022/01/08 11:28:10;;;;;;;1.73;0.75;;;5.40;99.90;;;;;;5055571;28;20278;-70
2022/01/08 11:30:38;;;;;;;0.60;0.60;;;5.50;99.90;;;;;;5055596;28;20663;-69
2022/01/08 11:33:10;;;;;;;0.95;0.85;;;5.50;99.90;;;;;;5055248;28;20620;-69
2022/01/08 11:35:37;;;;;;;3.95;1.92;;;5.50;99.90;;;;;;5055894;28;20168;-69
2022/01/08 11:38:08;;;;;;;1.02;0.80;;;5.50;99.90;;;;;;5055055;28;20188;-69
2022/01/08 11:40:36;;;;;;;0.65;0.65;;;5.40;99.90;;;;;;5055561;28;20254;-69
2022/01/08 11:43:03;;;;;;;0.55;0.55;;;5.20;99.90;;;;;;5055379;28;20166;-69
2022/01/08 11:45:35;;;;;;;1.75;1.45;;;5.20;99.90;;;;;;5055579;28;20200;-69
2022/01/08 11:48:04;;;;;;;2.03;1.20;;;5.10;99.90;;;;;;5055251;28;20664;-69
2022/01/08 11:50:31;;;;;;;1.20;1.08;;;5.10;99.90;;;;;;5055567;28;20703;-68
2022/01/08 11:53:24;;;;;;;0.68;0.68;;;5.10;99.90;;;;;;5054934;28;20178;-70
2022/01/08 11:55:53;;;;;;;1.48;1.35;;;5.20;99.90;;;;;;5055160;28;20173;-69
2022/01/08 11:58:27;;;;;;;0.52;0.50;;;6.00;99.90;;;;;;5055074;28;20194;-69
2022/01/08 12:00:57;;;;;;;1.48;0.82;;;5.80;99.90;;;;;;5055420;28;20176;-70
2022/01/08 12:03:35;;;;;;;0.63;0.60;;;5.70;99.90;;;;;;5065098;28;20187;-69
2022/01/08 12:06:33;;;;;;;0.88;0.80;;;5.90;99.90;;;;;;5075309;28;20171;-68
2022/01/08 12:09:08;;;;;;;2.03;1.00;;;6.00;99.90;;;;;;5075089;28;20191;-69
2022/01/08 12:12:01;;;;;;;0.80;0.70;;;6.00;99.90;;;;;;5074647;28;20199;-69
2022/01/08 12:14:45;;;;;;;0.70;0.70;;;5.90;99.90;;;;;;5075068;28;20659;-70
2022/01/08 12:17:14;;;;;;;6.43;1.85;;;5.90;99.90;;;;;;5074664;28;20215;-71
2022/01/08 12:19:50;;;;;;;1.42;1.25;;;5.90;99.90;;;;;;5073725;28;20175;-70
2022/01/08 12:22:15;;;;;;;1.50;0.80;;;6.00;99.90;;;;;;5074589;28;20525;-70
2022/01/08 12:24:56;;;;;;;1.67;1.57;;;6.20;99.90;;;;;;5074822;28;20163;-69
2022/01/08 12:27:34;;;;;;;0.57;0.57;;;6.10;99.90;;;;;;5074743;28;20242;-69
2022/01/08 12:30:21;;;;;;;0.77;0.75;;;6.10;99.90;;;;;;5075181;28;20565;-69
2022/01/08 12:33:14;;;;;;;0.70;0.70;;;6.00;99.90;;;;;;5062960;28;20184;-70
2022/01/08 12:35:40;;;;;;;1.25;1.25;;;5.90;99.90;;;;;;5074754;28;20574;-70
2022/01/08 12:38:28;;;;;;;1.00;1.00;;;5.90;99.90;;;;;;5074677;28;20189;-70
2022/01/08 12:40:55;;;;;;;3.38;1.20;;;5.80;99.90;;;;;;5074589;28;20164;-70
2022/01/08 12:43:23;;;;;;;4.10;0.98;;;5.80;99.90;;;;;;5072726;28;20174;-69
2022/01/08 12:46:09;;;;;;;0.75;0.63;;;5.80;99.90;;;;;;5074731;28;20175;-70
2022/01/08 12:48:35;;;;;;;1.05;0.75;;;5.90;99.90;;;;;;5074567;28;20175;-71
2022/01/08 12:51:05;;;;;;;0.80;0.80;;;5.80;99.90;;;;;;5073184;28;20243;-69
2022/01/08 12:53:32;;;;;;;0.65;0.65;;;5.70;99.90;;;;;;5072693;28;20195;-70
2022/01/08 12:55:58;;;;;;;1.20;0.95;;;5.60;99.90;;;;;;5074406;28;20232;-68
2022/01/08 12:58:26;;;;;;;0.93;0.90;;;5.50;99.90;;;;;;5074058;28;20690;-68
2022/01/08 13:01:16;;;;;;;1.15;0.88;;;5.40;99.90;;;;;;5074127;28;20472;-69
2022/01/08 13:03:45;;;;;;;0.93;0.80;;;5.40;99.90;;;;;;5060751;28;20242;-68
2022/01/08 13:06:14;;;;;;;2.97;1.25;;;5.30;99.90;;;;;;5053925;28;20260;-69
2022/01/08 13:08:45;;;;;;;1.40;1.30;;;5.20;99.90;;;;;;5052869;28;20265;-70
2022/01/08 13:11:14;;;;;;;2.05;1.13;;;5.20;99.90;;;;;;5053694;28;20214;-69
2022/01/08 13:13:53;;;;;;;0.80;0.80;;;5.10;99.90;;;;;;5053563;28;20620;-69
2022/01/08 13:16:28;;;;;;;1.40;0.75;;;5.10;99.90;;;;;;5053692;28;20169;-69
2022/01/08 13:19:05;;;;;;;1.75;1.25;;;5.10;99.90;;;;;;5053975;28;20256;-70
2022/01/08 13:21:41;;;;;;;0.60;0.60;;;5.10;99.90;;;;;;5053520;28;20189;-69
2022/01/08 13:24:17;;;;;;;0.95;0.85;;;5.10;99.90;;;;;;5053969;28;20215;-69